Time;durP1;ratioP1;P1;durP2;ratioP2;P2;SDS_P1;SDS_P2;PMS_P1;PMS_P2;Temp;Humidity;BMP_temperature;BMP_pressure;BME280_temperature;BME280_humidity;BME280_pressure;Samples;Min_cycle;Max_cycle;Signal;HPM_P1;HPM_P2
2021/09/21 00:01:31;;;;;;;7.28;6.35;;;10.70;99.90;;;;;;5052723;28;20024;-77
2021/09/21 00:03:56;;;;;;;6.93;6.20;;;10.70;99.90;;;;;;5052806;28;20029;-76
2021/09/21 00:06:22;;;;;;;8.45;7.32;;;10.60;99.90;;;;;;5052442;28;20495;-78
2021/09/21 00:08:47;;;;;;;6.30;5.70;;;10.60;99.90;;;;;;5052712;28;20404;-75
2021/09/21 00:11:13;;;;;;;6.18;5.57;;;10.60;99.90;;;;;;5052647;28;20384;-76
2021/09/21 00:13:39;;;;;;;8.13;5.55;;;10.60;99.90;;;;;;5052438;28;20048;-76
2021/09/21 00:16:06;;;;;;;6.85;5.78;;;10.50;99.90;;;;;;5052534;28;20025;-77
2021/09/21 00:18:32;;;;;;;8.20;5.20;;;10.50;99.90;;;;;;5052716;28;20047;-79
2021/09/21 00:20:58;;;;;;;6.53;5.88;;;10.50;99.90;;;;;;5052058;28;20059;-77
2021/09/21 00:23:24;;;;;;;5.93;5.43;;;10.50;99.90;;;;;;5056447;28;20037;-77
2021/09/21 00:25:49;;;;;;;6.13;5.55;;;10.50;99.90;;;;;;5056687;28;20484;-77
2021/09/21 00:28:15;;;;;;;6.80;5.75;;;10.50;99.90;;;;;;5056082;28;20098;-77
2021/09/21 00:30:48;;;;;;;7.95;5.47;;;10.50;99.90;;;;;;5056504;28;20025;-76
2021/09/21 00:33:18;;;;;;;5.97;5.20;;;10.50;99.90;;;;;;5056714;28;20039;-77
2021/09/21 00:35:46;;;;;;;10.00;6.13;;;10.50;99.90;;;;;;5055831;28;20025;-77
2021/09/21 00:38:14;;;;;;;6.15;5.55;;;10.50;99.90;;;;;;5056433;28;20033;-77
2021/09/21 00:40:41;;;;;;;6.13;5.53;;;10.50;99.90;;;;;;5056520;28;20110;-77
2021/09/21 00:43:06;;;;;;;7.40;6.03;;;10.40;99.90;;;;;;5056584;28;20057;-77
2021/09/21 00:45:33;;;;;;;10.10;5.40;;;10.50;99.90;;;;;;5056687;28;20079;-77
2021/09/21 00:47:59;;;;;;;5.93;5.32;;;10.40;99.90;;;;;;5055881;28;20056;-77
2021/09/21 00:50:27;;;;;;;9.90;6.38;;;10.40;99.90;;;;;;5056183;28;20022;-76
2021/09/21 00:52:55;;;;;;;6.95;5.53;;;10.40;99.90;;;;;;5056194;28;20393;-76
2021/09/21 00:55:21;;;;;;;7.20;5.60;;;10.30;99.90;;;;;;5055896;28;20017;-76
2021/09/21 00:57:47;;;;;;;6.00;5.22;;;10.30;99.90;;;;;;5055983;28;20384;-77
2021/09/21 01:00:15;;;;;;;6.15;5.65;;;10.40;99.90;;;;;;5056255;28;20381;-77
2021/09/21 01:02:41;;;;;;;5.93;5.38;;;10.30;99.90;;;;;;5055485;28;20497;-76
2021/09/21 01:05:08;;;;;;;6.53;5.85;;;10.30;99.90;;;;;;5055902;28;20067;-76
2021/09/21 01:07:38;;;;;;;6.43;5.82;;;10.30;99.90;;;;;;5056059;28;20049;-76
2021/09/21 01:10:06;;;;;;;6.37;5.77;;;10.30;99.90;;;;;;5055075;28;20039;-78
2021/09/21 01:12:32;;;;;;;6.60;5.70;;;10.20;99.90;;;;;;5055838;28;20025;-77
2021/09/21 01:14:59;;;;;;;5.90;5.38;;;10.20;99.90;;;;;;5055819;28;20118;-75
2021/09/21 01:17:25;;;;;;;6.82;6.15;;;10.20;99.90;;;;;;5055248;28;20373;-76
2021/09/21 01:19:50;;;;;;;7.47;6.22;;;10.20;99.90;;;;;;5055491;28;20017;-77
2021/09/21 01:22:16;;;;;;;7.93;6.07;;;10.20;99.90;;;;;;5055835;28;20541;-77
2021/09/21 01:24:41;;;;;;;6.63;6.03;;;10.20;99.90;;;;;;5055351;28;20049;-78
2021/09/21 01:27:07;;;;;;;6.07;5.50;;;10.10;99.90;;;;;;5055701;28;20451;-77
2021/09/21 01:29:34;;;;;;;7.70;5.82;;;10.10;99.90;;;;;;5055627;28;20076;-77
2021/09/21 01:31:59;;;;;;;6.88;6.10;;;10.10;99.90;;;;;;5054813;28;20457;-76
2021/09/21 01:34:26;;;;;;;6.40;5.80;;;10.10;99.90;;;;;;5055815;28;20100;-77
2021/09/21 01:36:52;;;;;;;5.82;5.32;;;10.00;99.90;;;;;;5056369;28;20527;-77
2021/09/21 01:39:17;;;;;;;13.65;5.55;;;10.10;99.90;;;;;;5054980;28;20032;-77
2021/09/21 01:41:44;;;;;;;6.07;5.45;;;10.10;99.90;;;;;;5055060;28;20041;-77
2021/09/21 01:44:10;;;;;;;8.18;5.60;;;10.00;99.90;;;;;;5054751;28;20377;-77
2021/09/21 01:46:36;;;;;;;7.00;6.22;;;10.00;99.90;;;;;;5055207;28;20021;-76
2021/09/21 01:49:02;;;;;;;7.35;6.65;;;10.00;99.90;;;;;;5055572;28;20029;-76
2021/09/21 01:51:34;;;;;;;6.28;5.68;;;9.90;99.90;;;;;;5056440;28;20028;-76
2021/09/21 01:54:13;;;;;;;6.47;5.80;;;9.90;99.90;;;;;;5056132;28;20025;-78
2021/09/21 01:59:23;;;;;;;7.72;6.18;;;9.90;99.90;;;;;;5054662;28;20499;-77
2021/09/21 02:01:48;;;;;;;6.63;6.10;;;9.90;99.90;;;;;;5054887;28;20037;-76
2021/09/21 02:04:14;;;;;;;6.85;6.25;;;9.80;99.90;;;;;;5055339;28;20033;-76
2021/09/21 02:06:41;;;;;;;6.55;5.95;;;9.80;99.90;;;;;;5054725;28;20032;-77
2021/09/21 02:09:09;;;;;;;6.35;5.60;;;9.80;99.90;;;;;;5055664;28;20029;-76
2021/09/21 02:11:36;;;;;;;6.35;5.82;;;9.80;99.90;;;;;;5054937;28;20024;-77
2021/09/21 02:14:03;;;;;;;6.47;5.40;;;9.80;99.90;;;;;;5054193;28;20045;-76
2021/09/21 02:16:30;;;;;;;9.23;5.80;;;9.70;99.90;;;;;;5055141;28;20439;-76
2021/09/21 02:18:56;;;;;;;5.72;5.22;;;9.70;99.90;;;;;;5054993;28;20024;-75
2021/09/21 02:21:22;;;;;;;5.35;4.85;;;9.70;99.90;;;;;;5056836;28;20031;-76
2021/09/21 02:23:51;;;;;;;4.88;4.47;;;9.60;99.90;;;;;;5054706;28;20111;-78
2021/09/21 02:26:16;;;;;;;4.95;4.55;;;9.60;99.90;;;;;;5054095;28;20033;-77
2021/09/21 02:28:42;;;;;;;4.95;4.45;;;9.50;99.90;;;;;;5054265;28;20035;-76
2021/09/21 02:31:07;;;;;;;5.65;4.63;;;9.50;99.90;;;;;;5054801;28;20035;-76
2021/09/21 02:33:33;;;;;;;4.85;4.45;;;9.40;99.90;;;;;;5054028;28;20082;-75
2021/09/21 02:36:03;;;;;;;5.50;5.00;;;9.40;99.90;;;;;;5054345;28;20441;-75
2021/09/21 02:38:28;;;;;;;5.95;5.45;;;9.40;99.90;;;;;;5054349;28;20433;-76
2021/09/21 02:40:54;;;;;;;6.15;4.90;;;9.40;99.90;;;;;;5053602;28;20080;-77
2021/09/21 02:43:20;;;;;;;8.32;5.85;;;9.30;99.90;;;;;;5054141;28;20043;-76
2021/09/21 02:45:45;;;;;;;7.32;6.40;;;9.30;99.90;;;;;;5053827;28;20420;-76
2021/09/21 02:48:11;;;;;;;9.82;5.30;;;9.30;99.90;;;;;;5053798;28;20362;-76
2021/09/21 02:50:36;;;;;;;10.27;5.70;;;9.20;99.90;;;;;;5054051;28;20017;-75
2021/09/21 02:53:03;;;;;;;8.90;5.82;;;9.20;99.90;;;;;;5054107;28;20028;-76
2021/09/21 02:55:29;;;;;;;5.85;5.07;;;9.20;99.90;;;;;;5053547;28;20043;-75
2021/09/21 02:57:55;;;;;;;5.38;4.93;;;9.20;99.90;;;;;;5053726;28;20385;-76
2021/09/21 03:00:25;;;;;;;7.10;6.18;;;9.10;99.90;;;;;;5054113;28;20083;-75
2021/09/21 03:02:51;;;;;;;;;;;9.10;99.90;;;;;;5053910;28;20041;-75
2021/09/21 03:05:22;;;;;;;5.90;4.95;;;9.10;99.90;;;;;;5053649;28;20034;-76
2021/09/21 03:07:58;;;;;;;8.52;5.15;;;9.10;99.90;;;;;;5054017;28;20029;-76
2021/09/21 03:10:31;;;;;;;8.20;4.53;;;9.10;99.90;;;;;;5053764;28;20108;-76
2021/09/21 03:18:20;;;;;;;4.78;4.38;;;8.90;99.90;;;;;;5037445;28;20037;-77
2021/09/21 03:20:46;;;;;;;5.00;4.50;;;8.90;99.90;;;;;;5053392;28;20107;-77
2021/09/21 03:23:11;;;;;;;4.72;4.32;;;8.90;99.90;;;;;;5053070;28;20033;-76
2021/09/21 03:25:37;;;;;;;5.30;3.45;;;8.80;99.90;;;;;;5053220;28;20112;-76
2021/09/21 03:28:03;;;;;;;3.55;2.80;;;8.80;99.90;;;;;;5053518;28;20033;-76
2021/09/21 03:30:28;;;;;;;2.85;2.65;;;8.80;99.90;;;;;;5053036;28;20028;-76
2021/09/21 03:32:54;;;;;;;2.20;2.10;;;8.70;99.90;;;;;;5053119;28;20025;-76
2021/09/21 03:35:19;;;;;;;2.92;2.72;;;8.60;99.90;;;;;;5053170;28;20535;-76
2021/09/21 03:37:45;;;;;;;3.17;2.97;;;8.60;99.90;;;;;;5052606;28;20067;-76
2021/09/21 03:40:11;;;;;;;3.17;2.97;;;8.50;99.90;;;;;;5052863;28;20045;-77
2021/09/21 03:42:37;;;;;;;4.15;3.55;;;8.40;99.90;;;;;;5053134;28;20083;-77
2021/09/21 03:45:03;;;;;;;4.05;3.67;;;8.40;99.90;;;;;;5052305;28;20025;-77
2021/09/21 03:47:29;;;;;;;3.30;3.00;;;8.40;99.90;;;;;;5053125;28;20111;-77
2021/09/21 03:49:54;;;;;;;3.70;3.40;;;8.30;99.90;;;;;;5052952;28;20111;-77
2021/09/21 03:52:20;;;;;;;4.18;3.88;;;8.30;99.90;;;;;;5052327;28;20036;-76
2021/09/21 03:54:48;;;;;;;4.43;3.97;;;8.30;99.90;;;;;;5052997;28;20017;-76
2021/09/21 03:57:14;;;;;;;4.13;3.55;;;8.20;99.90;;;;;;5052191;28;20381;-77
2021/09/21 03:59:39;;;;;;;2.80;2.60;;;8.30;99.90;;;;;;5052281;28;20050;-76
2021/09/21 04:02:05;;;;;;;3.22;2.97;;;8.30;99.90;;;;;;5052915;28;20041;-75
2021/09/21 04:04:31;;;;;;;3.25;2.95;;;8.20;99.90;;;;;;5052707;28;20021;-76
2021/09/21 04:06:56;;;;;;;3.63;3.33;;;8.20;99.90;;;;;;5052448;28;20053;-77
2021/09/21 04:09:22;;;;;;;3.88;3.58;;;8.20;99.90;;;;;;5053101;28;20100;-78
2021/09/21 04:11:47;;;;;;;3.35;3.15;;;8.10;99.90;;;;;;5052328;28;20025;-75
2021/09/21 04:14:13;;;;;;;4.25;3.63;;;8.20;99.90;;;;;;5052650;28;20033;-76
2021/09/21 04:16:41;;;;;;;4.43;4.03;;;8.20;99.90;;;;;;5052713;28;20113;-77
2021/09/21 04:19:07;;;;;;;5.28;4.15;;;8.20;99.90;;;;;;5052256;28;20037;-77
2021/09/21 04:21:33;;;;;;;4.85;4.40;;;8.20;99.90;;;;;;5052315;28;20036;-78
2021/09/21 04:23:58;;;;;;;5.13;4.50;;;8.20;99.90;;;;;;5053008;28;20032;-78
2021/09/21 04:26:24;;;;;;;5.15;4.75;;;8.20;99.90;;;;;;5052054;28;20020;-77
2021/09/21 04:28:50;;;;;;;5.30;4.80;;;8.20;99.90;;;;;;5052406;28;20029;-77
2021/09/21 04:31:23;;;;;;;6.63;4.63;;;8.20;99.90;;;;;;5052571;28;20449;-76
2021/09/21 04:33:48;;;;;;;5.10;4.32;;;8.20;99.90;;;;;;5052352;28;20113;-76
2021/09/21 04:36:14;;;;;;;4.15;3.85;;;8.20;99.90;;;;;;5053668;28;20128;-77
2021/09/21 04:38:40;;;;;;;3.92;3.55;;;8.20;99.90;;;;;;5052728;28;20394;-77
2021/09/21 04:41:06;;;;;;;3.53;3.22;;;8.20;99.90;;;;;;5051685;28;20134;-77
2021/09/21 04:43:33;;;;;;;4.72;2.95;;;8.20;99.90;;;;;;5052182;28;20075;-76
2021/09/21 04:45:59;;;;;;;3.53;3.22;;;8.10;99.90;;;;;;5052490;28;20025;-77
2021/09/21 04:48:24;;;;;;;3.47;3.17;;;8.10;99.90;;;;;;5052457;28;20081;-77
2021/09/21 04:50:50;;;;;;;3.67;3.38;;;8.10;99.90;;;;;;5052943;28;20025;-77
2021/09/21 04:53:16;;;;;;;3.85;2.92;;;8.00;99.90;;;;;;5053415;28;20117;-77
2021/09/21 04:55:42;;;;;;;3.80;2.80;;;8.00;99.90;;;;;;5051922;28;20013;-77
2021/09/21 04:58:08;;;;;;;3.45;3.15;;;8.00;99.90;;;;;;5052347;28;20029;-77
2021/09/21 05:00:34;;;;;;;4.43;3.72;;;8.00;99.90;;;;;;5052355;28;20120;-77
2021/09/21 05:02:59;;;;;;;5.13;4.32;;;8.00;99.90;;;;;;5051849;28;20124;-75
2021/09/21 05:05:25;;;;;;;5.97;4.63;;;7.90;99.90;;;;;;5052535;28;20028;-77
2021/09/21 05:07:50;;;;;;;7.05;3.95;;;7.90;99.90;;;;;;5054609;28;20160;-76
2021/09/21 05:10:16;;;;;;;5.55;4.95;;;7.90;99.90;;;;;;5055462;28;20025;-76
2021/09/21 05:12:43;;;;;;;4.63;4.07;;;7.90;99.90;;;;;;5055963;28;20104;-76
2021/09/21 05:15:10;;;;;;;5.45;4.60;;;7.90;99.90;;;;;;5055324;28;20017;-76
2021/09/21 05:17:36;;;;;;;7.40;4.03;;;7.90;99.90;;;;;;5055373;28;20040;-76
2021/09/21 05:20:03;;;;;;;5.07;3.92;;;7.90;99.90;;;;;;5055855;28;20024;-76
2021/09/21 05:22:28;;;;;;;4.82;3.85;;;7.90;99.90;;;;;;5055013;28;20029;-75
2021/09/21 05:24:54;;;;;;;4.75;4.35;;;7.90;99.90;;;;;;5055384;28;20025;-76
2021/09/21 05:27:19;;;;;;;3.58;3.30;;;7.90;99.90;;;;;;5055663;28;20021;-76
2021/09/21 05:29:45;;;;;;;4.65;2.90;;;7.90;99.90;;;;;;5055327;28;20117;-75
2021/09/21 05:32:10;;;;;;;6.18;4.75;;;7.90;99.90;;;;;;5055686;28;20528;-76
2021/09/21 05:34:39;;;;;;;6.53;4.88;;;7.90;99.90;;;;;;5055906;28;20654;-78
2021/09/21 05:37:04;;;;;;;4.60;4.20;;;7.90;99.90;;;;;;5055389;28;20025;-77
2021/09/21 05:39:30;;;;;;;4.68;4.15;;;7.90;99.90;;;;;;5055209;28;20025;-76
2021/09/21 05:41:55;;;;;;;5.70;5.20;;;8.00;99.90;;;;;;5055369;28;20029;-77
2021/09/21 05:44:21;;;;;;;8.00;5.55;;;7.90;99.90;;;;;;5054503;28;20464;-75
2021/09/21 05:46:47;;;;;;;7.13;6.43;;;8.00;99.90;;;;;;5055537;28;20453;-76
2021/09/21 05:49:12;;;;;;;7.60;5.57;;;8.00;99.90;;;;;;5055322;28;20073;-77
2021/09/21 05:51:38;;;;;;;5.78;5.18;;;8.10;99.90;;;;;;5054598;28;20457;-78
2021/09/21 05:54:03;;;;;;;7.30;6.55;;;8.10;99.90;;;;;;5055364;28;20025;-77
2021/09/21 05:56:29;;;;;;;8.02;6.00;;;8.20;99.90;;;;;;5055060;28;20024;-76
2021/09/21 05:58:56;;;;;;;7.38;6.20;;;8.30;99.90;;;;;;5054443;28;20028;-77
2021/09/21 06:01:21;;;;;;;6.72;6.13;;;8.30;99.90;;;;;;5055021;28;20032;-76
2021/09/21 06:03:47;;;;;;;6.28;5.60;;;8.30;99.90;;;;;;5055120;28;20037;-76
2021/09/21 06:06:13;;;;;;;12.77;8.07;;;8.40;99.90;;;;;;5054459;28;20025;-76
2021/09/21 06:08:38;;;;;;;10.00;7.18;;;8.50;99.90;;;;;;5055026;28;20457;-77
2021/09/21 06:11:04;;;;;;;10.25;7.90;;;8.60;99.90;;;;;;5055095;28;20033;-76
2021/09/21 06:13:29;;;;;;;7.82;7.10;;;8.70;99.90;;;;;;5054570;28;20057;-77
2021/09/21 06:15:55;;;;;;;8.15;7.35;;;8.80;99.90;;;;;;5055353;28;20032;-76
2021/09/21 06:18:21;;;;;;;9.70;7.70;;;8.90;99.90;;;;;;5054618;28;20082;-76
2021/09/21 06:20:47;;;;;;;11.45;8.38;;;8.90;99.90;;;;;;5054137;28;20021;-77
2021/09/21 06:23:13;;;;;;;11.43;6.88;;;9.00;99.90;;;;;;5055196;28;20455;-78
2021/09/21 06:25:39;;;;;;;7.25;6.53;;;9.10;99.90;;;;;;5054719;28;20018;-76
2021/09/21 06:28:05;;;;;;;7.25;5.95;;;9.20;99.90;;;;;;5055196;28;20036;-78
2021/09/21 06:30:32;;;;;;;7.22;6.63;;;9.30;99.90;;;;;;5055373;28;20108;-76
2021/09/21 06:32:57;;;;;;;12.30;5.80;;;9.40;99.90;;;;;;5054309;28;20036;-76
2021/09/21 06:35:23;;;;;;;6.45;5.95;;;9.50;99.90;;;;;;5054418;28;20025;-77
2021/09/21 06:37:49;;;;;;;8.93;6.28;;;9.50;99.90;;;;;;5054430;28;20048;-78
2021/09/21 06:40:15;;;;;;;11.07;6.90;;;9.60;99.90;;;;;;5053692;28;20266;-77
2021/09/21 06:42:42;;;;;;;7.20;6.47;;;9.70;99.90;;;;;;5053930;28;20041;-78
2021/09/21 06:45:09;;;;;;;8.68;6.97;;;9.80;99.90;;;;;;5054075;28;20373;-76
2021/09/21 06:47:35;;;;;;;7.70;6.90;;;9.90;99.90;;;;;;5053597;28;20025;-77
2021/09/21 06:50:01;;;;;;;8.88;6.57;;;10.00;99.90;;;;;;5054041;28;20024;-77
2021/09/21 06:52:26;;;;;;;7.38;6.68;;;10.10;99.90;;;;;;5053983;28;20029;-76
2021/09/21 06:54:52;;;;;;;13.68;7.20;;;10.20;99.90;;;;;;5053209;28;20021;-76
2021/09/21 06:57:17;;;;;;;12.73;6.82;;;10.30;99.90;;;;;;5053874;28;20056;-77
2021/09/21 06:59:46;;;;;;;11.95;7.00;;;10.40;99.90;;;;;;5053917;28;20036;-78
2021/09/21 07:02:11;;;;;;;13.85;7.63;;;10.50;99.90;;;;;;5053284;28;20055;-77
2021/09/21 07:04:37;;;;;;;11.45;7.95;;;10.60;99.90;;;;;;5053971;28;20504;-77
2021/09/21 07:07:03;;;;;;;8.27;7.05;;;10.70;99.90;;;;;;5056068;28;20366;-76
2021/09/21 07:09:28;;;;;;;9.23;6.47;;;10.80;99.90;;;;;;5052954;28;20021;-78
2021/09/21 07:11:54;;;;;;;9.77;8.10;;;10.90;99.90;;;;;;5053547;28;20449;-77
2021/09/21 07:14:19;;;;;;;11.43;7.13;;;11.10;99.90;;;;;;5053575;28;20029;-77
2021/09/21 07:16:45;;;;;;;10.48;7.53;;;11.10;99.90;;;;;;5052926;28;20021;-77
2021/09/21 07:19:11;;;;;;;8.25;7.40;;;11.30;99.90;;;;;;5055146;28;20436;-76
2021/09/21 07:21:37;;;;;;;8.63;7.20;;;11.40;99.90;;;;;;5053607;28;20482;-77
2021/09/21 07:24:02;;;;;;;9.80;7.35;;;11.50;99.90;;;;;;5052747;28;20112;-77
2021/09/21 07:26:28;;;;;;;8.23;7.43;;;11.60;99.90;;;;;;5053200;28;20025;-77
2021/09/21 07:28:53;;;;;;;13.48;7.97;;;11.90;99.90;;;;;;5053183;28;20025;-76
2021/09/21 07:31:19;;;;;;;7.55;6.70;;;11.90;99.90;;;;;;5052988;28;20021;-76
2021/09/21 07:33:47;;;;;;;9.77;7.47;;;11.90;99.90;;;;;;5053373;28;20108;-75
2021/09/21 07:36:12;;;;;;;9.20;7.35;;;12.00;99.90;;;;;;5052918;28;20104;-76
2021/09/21 07:38:38;;;;;;;8.07;7.25;;;12.00;99.90;;;;;;5053126;28;20511;-76
2021/09/21 07:41:04;;;;;;;9.32;7.45;;;12.10;99.90;;;;;;5053018;28;20048;-79
2021/09/21 07:43:29;;;;;;;7.88;7.07;;;12.10;99.90;;;;;;5052568;28;20058;-77
2021/09/21 07:45:55;;;;;;;8.20;7.43;;;12.10;99.90;;;;;;5053218;28;20028;-77
2021/09/21 07:48:21;;;;;;;7.47;6.78;;;12.20;99.90;;;;;;5053282;28;20460;-75
2021/09/21 07:50:48;;;;;;;9.13;7.63;;;12.20;99.90;;;;;;5052558;28;20487;-76
2021/09/21 07:53:14;;;;;;;9.40;8.30;;;12.30;99.90;;;;;;5053053;28;20036;-77
2021/09/21 07:55:39;;;;;;;10.65;7.10;;;12.30;99.90;;;;;;5052930;28;20529;-77
2021/09/21 07:58:05;;;;;;;11.45;8.18;;;12.40;99.90;;;;;;5052631;28;20124;-78
2021/09/21 08:00:31;;;;;;;9.07;7.47;;;12.40;99.90;;;;;;5053326;28;20110;-77
2021/09/21 08:02:57;;;;;;;9.98;7.63;;;12.50;99.90;;;;;;5053397;28;20138;-77
2021/09/21 08:05:23;;;;;;;8.93;7.28;;;12.60;99.90;;;;;;5052414;28;20114;-77
2021/09/21 08:07:48;;;;;;;8.07;7.00;;;12.70;99.90;;;;;;5053942;28;20117;-77
2021/09/21 08:10:15;;;;;;;8.65;7.13;;;12.80;99.90;;;;;;5052880;28;20115;-77
2021/09/21 08:12:40;;;;;;;8.75;7.20;;;12.90;99.90;;;;;;5052197;28;20090;-77
2021/09/21 08:15:07;;;;;;;7.82;7.10;;;13.10;99.90;;;;;;5051550;28;20021;-78
2021/09/21 08:17:33;;;;;;;7.82;7.13;;;13.20;99.90;;;;;;5053667;28;20040;-77
2021/09/21 08:19:59;;;;;;;6.38;4.80;;;13.30;99.90;;;;;;5052848;28;20021;-78
2021/09/21 08:22:28;;;;;;;5.60;5.10;;;13.40;99.90;;;;;;5052889;28;20056;-76
2021/09/21 08:24:55;;;;;;;6.93;5.47;;;13.40;99.90;;;;;;5052963;28;20021;-77
2021/09/21 08:27:24;;;;;;;6.57;5.18;;;13.40;99.90;;;;;;5052496;28;20064;-77
2021/09/21 08:29:51;;;;;;;6.00;5.38;;;13.50;99.90;;;;;;5053238;28;20068;-77
2021/09/21 08:32:16;;;;;;;10.00;4.68;;;13.60;99.90;;;;;;5052345;28;20025;-78
2021/09/21 08:34:42;;;;;;;6.18;4.70;;;13.70;99.90;;;;;;5052651;28;20388;-76
2021/09/21 08:37:08;;;;;;;5.63;4.55;;;13.90;99.90;;;;;;5052593;28;20021;-77
2021/09/21 08:39:34;;;;;;;7.57;4.93;;;14.00;99.90;;;;;;5052029;28;20021;-76
2021/09/21 08:42:00;;;;;;;5.18;4.75;;;14.10;99.90;;;;;;5052634;28;20029;-76
2021/09/21 08:44:25;;;;;;;5.93;4.68;;;14.20;99.90;;;;;;5056602;28;20055;-76
2021/09/21 08:46:51;;;;;;;5.18;4.78;;;14.30;99.90;;;;;;5055885;28;20021;-77
2021/09/21 08:49:17;;;;;;;6.13;5.53;;;14.30;99.90;;;;;;5056408;28;20052;-77
2021/09/21 08:51:43;;;;;;;8.38;5.60;;;14.50;99.90;;;;;;5056398;28;20159;-77
2021/09/21 08:54:09;;;;;;;4.93;4.43;;;14.50;99.90;;;;;;5055544;28;20059;-78
2021/09/21 08:56:35;;;;;;;5.63;4.90;;;14.60;99.90;;;;;;5056488;28;20106;-78
2021/09/21 08:59:11;;;;;;;7.13;4.80;;;14.70;99.90;;;;;;5056475;28;20496;-77
2021/09/21 09:01:45;;;;;;;4.90;4.50;;;14.70;99.90;;;;;;5055664;28;20025;-79
2021/09/21 09:04:12;;;;;;;4.18;3.75;;;14.90;99.90;;;;;;5056301;28;20025;-77
2021/09/21 09:06:48;;;;;;;4.93;4.47;;;14.90;99.90;;;;;;5056032;28;20116;-78
2021/09/21 09:09:23;;;;;;;7.82;3.90;;;15.00;99.90;;;;;;5055687;28;20039;-78
2021/09/21 09:11:50;;;;;;;4.50;4.10;;;15.10;99.90;;;;;;5056355;28;20025;-78
2021/09/21 09:14:24;;;;;;;9.75;4.95;;;15.10;99.90;;;;;;5055485;28;20028;-78
2021/09/21 09:17:04;;;;;;;5.28;4.78;;;15.20;99.90;;;;;;5055860;28;20029;-77
2021/09/21 09:19:39;;;;;;;5.97;4.73;;;15.30;99.90;;;;;;5055836;28;20503;-76
2021/09/21 09:22:07;;;;;;;5.50;4.63;;;15.30;99.90;;;;;;5055176;28;20029;-76
2021/09/21 09:24:49;;;;;;;5.40;4.85;;;15.30;99.90;;;;;;5055908;28;20028;-77
2021/09/21 09:27:16;;;;;;;7.40;4.53;;;15.40;99.90;;;;;;5055787;28;20036;-77
2021/09/21 09:29:56;;;;;;;4.88;4.40;;;15.40;99.90;;;;;;5055262;28;20029;-77
2021/09/21 09:32:22;;;;;;;4.55;4.15;;;15.40;99.90;;;;;;5055802;28;20174;-76
2021/09/21 09:34:48;;;;;;;5.90;5.30;;;15.40;99.90;;;;;;5054852;28;20120;-76
2021/09/21 09:37:14;;;;;;;5.07;3.80;;;15.50;99.90;;;;;;5055965;28;20026;-77
2021/09/21 09:39:40;;;;;;;4.40;4.00;;;15.50;99.90;;;;;;5055529;28;20105;-77
2021/09/21 09:42:08;;;;;;;5.70;4.20;;;15.60;99.90;;;;;;5055384;28;20054;-76
2021/09/21 09:44:35;;;;;;;6.57;5.00;;;15.70;99.90;;;;;;5054641;28;20040;-78
2021/09/21 09:47:06;;;;;;;5.75;4.35;;;15.70;99.90;;;;;;5056249;28;20114;-79
2021/09/21 09:49:41;;;;;;;5.50;4.53;;;15.60;99.90;;;;;;5055277;28;20109;-78
2021/09/21 09:52:15;;;;;;;4.93;4.43;;;15.70;99.90;;;;;;5055217;28;20052;-77
2021/09/21 09:54:42;;;;;;;6.78;4.32;;;15.70;99.90;;;;;;5054001;28;20028;-76
2021/09/21 09:57:09;;;;;;;5.80;3.75;;;15.70;99.90;;;;;;5054429;28;20024;-76
2021/09/21 09:59:36;;;;;;;4.07;3.67;;;15.70;99.90;;;;;;5055270;28;20024;-76
2021/09/21 10:02:02;;;;;;;4.60;3.80;;;15.70;99.90;;;;;;5055068;28;20033;-77
2021/09/21 10:04:28;;;;;;;6.13;3.42;;;15.80;99.90;;;;;;5054284;28;20491;-76
2021/09/21 10:06:55;;;;;;;4.82;4.43;;;15.90;99.90;;;;;;5054858;28;20021;-77
2021/09/21 10:09:21;;;;;;;3.92;3.58;;;15.90;99.90;;;;;;5055180;28;20028;-77
2021/09/21 10:11:50;;;;;;;3.85;3.55;;;16.00;99.90;;;;;;5054133;28;20540;-76
2021/09/21 10:14:20;;;;;;;4.82;3.85;;;16.10;99.90;;;;;;5054777;28;20041;-76
2021/09/21 10:16:52;;;;;;;3.17;2.90;;;16.20;99.60;;;;;;5054928;28;20025;-77
2021/09/21 10:19:21;;;;;;;3.63;2.78;;;16.30;99.00;;;;;;5054196;28;20029;-78
2021/09/21 10:21:48;;;;;;;3.75;2.75;;;16.40;99.10;;;;;;5055183;28;20028;-79
2021/09/21 10:24:15;;;;;;;3.50;2.88;;;16.50;98.70;;;;;;5055415;28;20040;-79
2021/09/21 10:26:49;;;;;;;8.85;2.63;;;16.60;98.50;;;;;;5054580;28;20032;-77
2021/09/21 10:29:25;;;;;;;2.50;2.30;;;16.70;97.90;;;;;;5054377;28;20032;-77
2021/09/21 10:31:58;;;;;;;4.53;2.25;;;16.80;97.00;;;;;;5053592;28;20324;-77
2021/09/21 10:34:24;;;;;;;2.92;2.63;;;16.90;96.50;;;;;;5054408;28;20029;-79
2021/09/21 10:36:54;;;;;;;3.05;2.15;;;17.00;96.50;;;;;;5054668;28;20096;-78
2021/09/21 10:39:22;;;;;;;2.23;1.90;;;17.10;96.20;;;;;;5054336;28;20032;-77
2021/09/21 10:42:03;;;;;;;2.30;2.10;;;17.20;95.60;;;;;;5054455;28;20036;-79
2021/09/21 10:44:30;;;;;;;2.85;1.95;;;17.30;95.40;;;;;;5054216;28;20024;-78
2021/09/21 10:47:03;;;;;;;2.60;2.40;;;17.30;94.70;;;;;;5054190;28;20060;-78
2021/09/21 10:49:41;;;;;;;2.33;2.13;;;17.30;93.70;;;;;;5054333;28;20025;-78
2021/09/21 10:52:09;;;;;;;4.05;3.08;;;17.40;94.50;;;;;;5054058;28;20047;-78
2021/09/21 10:54:57;;;;;;;7.32;2.90;;;17.40;95.00;;;;;;5053428;28;20027;-77
2021/09/21 10:57:33;;;;;;;2.95;2.50;;;17.50;94.30;;;;;;5055022;28;20374;-77
2021/09/21 11:00:06;;;;;;;4.63;3.20;;;17.50;94.00;;;;;;5053797;28;20029;-77
2021/09/21 11:02:42;;;;;;;2.92;2.72;;;17.60;94.80;;;;;;5054240;28;20048;-78
2021/09/21 11:05:16;;;;;;;2.65;2.45;;;17.70;94.50;;;;;;5054111;28;20028;-78
2021/09/21 11:07:54;;;;;;;3.35;2.63;;;17.80;94.30;;;;;;5053697;28;20025;-78
2021/09/21 11:10:20;;;;;;;2.97;2.30;;;17.90;94.00;;;;;;5054424;28;20029;-78
2021/09/21 11:12:48;;;;;;;2.05;1.95;;;18.00;93.10;;;;;;5054349;28;20040;-78
2021/09/21 11:15:14;;;;;;;6.20;2.40;;;18.10;93.00;;;;;;5054036;28;20448;-78
2021/09/21 11:17:40;;;;;;;2.30;2.10;;;18.20;93.20;;;;;;5054963;28;20064;-77
2021/09/21 11:20:06;;;;;;;2.72;1.63;;;18.20;93.20;;;;;;5054838;28;20053;-78
2021/09/21 11:22:32;;;;;;;2.00;1.80;;;18.30;92.90;;;;;;5053877;28;20033;-78
2021/09/21 11:25:05;;;;;;;2.63;1.90;;;18.30;92.50;;;;;;5054133;28;20024;-79
2021/09/21 11:27:33;;;;;;;2.35;2.15;;;18.40;92.30;;;;;;5054007;28;20045;-79
2021/09/21 11:30:07;;;;;;;2.15;2.00;;;18.50;92.60;;;;;;5052738;28;20036;-77
2021/09/21 11:32:33;;;;;;;2.67;2.47;;;18.60;92.30;;;;;;5053661;28;20029;-78
2021/09/21 11:35:11;;;;;;;2.50;2.30;;;18.60;91.60;;;;;;5053262;28;20027;-77
2021/09/21 11:37:40;;;;;;;4.60;2.38;;;18.60;91.30;;;;;;5053867;28;20417;-77
2021/09/21 11:40:06;;;;;;;2.78;2.20;;;18.60;91.40;;;;;;5053680;28;20053;-78
2021/09/21 11:42:34;;;;;;;6.05;2.55;;;18.60;91.40;;;;;;5052893;28;20045;-77
2021/09/21 11:45:05;;;;;;;2.78;2.33;;;18.60;91.40;;;;;;5053358;28;20051;-76
2021/09/21 11:47:43;;;;;;;2.35;2.15;;;18.50;90.80;;;;;;5053411;28;20049;-77
2021/09/21 11:50:11;;;;;;;2.22;1.88;;;18.50;91.30;;;;;;5052535;28;20024;-77
2021/09/21 11:52:39;;;;;;;4.00;2.38;;;18.50;91.40;;;;;;5053156;28;20029;-77
2021/09/21 11:55:13;;;;;;;4.55;2.60;;;18.70;91.80;;;;;;5053036;28;20074;-77
2021/09/21 11:57:39;;;;;;;3.92;2.40;;;18.70;91.50;;;;;;5052617;28;20032;-77
2021/09/21 12:00:06;;;;;;;2.28;2.08;;;18.80;91.40;;;;;;5053069;28;20035;-76
2021/09/21 12:02:33;;;;;;;2.83;2.60;;;18.90;91.70;;;;;;5053029;28;20029;-77
2021/09/21 12:04:59;;;;;;;3.90;1.98;;;18.90;91.00;;;;;;5052307;28;20021;-76
2021/09/21 12:07:25;;;;;;;2.75;2.33;;;19.00;91.20;;;;;;5052853;28;20036;-77
2021/09/21 12:09:53;;;;;;;2.17;1.95;;;19.10;90.70;;;;;;5052748;28;20414;-77
2021/09/21 12:12:22;;;;;;;2.83;2.42;;;19.20;90.40;;;;;;5052457;28;20112;-78
2021/09/21 12:15:00;;;;;;;2.65;2.03;;;19.40;90.60;;;;;;5052994;28;20049;-77
2021/09/21 12:17:26;;;;;;;2.63;2.33;;;19.60;90.40;;;;;;5051333;28;20024;-77
2021/09/21 12:20:00;;;;;;;2.60;1.95;;;19.60;89.50;;;;;;5052769;28;20021;-77
2021/09/21 12:22:27;;;;;;;2.45;2.17;;;19.80;89.00;;;;;;5052505;28;20086;-77
2021/09/21 12:24:53;;;;;;;1.90;1.80;;;19.90;88.00;;;;;;5051945;28;20036;-77
2021/09/21 12:27:24;;;;;;;2.45;1.70;;;20.10;87.40;;;;;;5052807;28;20033;-78
2021/09/21 12:29:50;;;;;;;2.35;1.90;;;20.10;87.60;;;;;;5053137;28;20021;-78
2021/09/21 12:32:16;;;;;;;2.10;1.92;;;20.10;87.20;;;;;;5051944;28;20033;-76
2021/09/21 12:34:43;;;;;;;3.10;2.10;;;20.10;87.70;;;;;;5051263;28;20485;-78
2021/09/21 12:37:09;;;;;;;2.45;2.25;;;20.20;87.20;;;;;;5052750;28;20025;-78
2021/09/21 12:39:35;;;;;;;3.00;2.42;;;20.40;87.60;;;;;;5051972;28;20053;-78
2021/09/21 12:42:02;;;;;;;3.85;2.65;;;20.40;87.10;;;;;;5052715;28;20102;-78
2021/09/21 12:44:29;;;;;;;4.40;1.95;;;20.50;85.60;;;;;;5052716;28;20029;-80
2021/09/21 12:46:57;;;;;;;7.05;2.25;;;20.50;85.70;;;;;;5051954;28;20100;-78
2021/09/21 12:49:25;;;;;;;5.43;3.75;;;20.60;85.80;;;;;;5052695;28;20029;-78
2021/09/21 12:51:57;;;;;;;3.10;2.65;;;20.50;84.40;;;;;;5053177;28;20021;-79
2021/09/21 12:54:27;;;;;;;3.03;2.60;;;20.60;85.20;;;;;;5051950;28;20021;-78
2021/09/21 12:56:55;;;;;;;5.00;2.40;;;20.60;84.50;;;;;;5052574;28;20045;-78
2021/09/21 12:59:23;;;;;;;3.13;2.75;;;20.60;84.00;;;;;;5051861;28;20059;-77